Time;durP1;ratioP1;P1;durP2;ratioP2;P2;SDS_P1;SDS_P2;PMS_P1;PMS_P2;Temp;Humidity;BMP_temperature;BMP_pressure;BME280_temperature;BME280_humidity;BME280_pressure;Samples;Min_cycle;Max_cycle;Signal;HPM_P1;HPM_P2
2021/06/23 00:00:06;;;;;;;43.05;30.33;;;16.40;99.90;;;;;;4246016;27;20055;-70
2021/06/23 00:02:09;;;;;;;38.38;30.20;;;16.40;99.90;;;;;;4228591;28;20051;-73
2021/06/23 00:04:12;;;;;;;37.00;29.48;;;16.40;99.90;;;;;;4246258;27;20492;-72
2021/06/23 00:06:17;;;;;;;39.15;28.60;;;16.40;99.90;;;;;;4246320;27;20044;-73
2021/06/23 00:08:20;;;;;;;47.70;30.33;;;16.30;99.90;;;;;;4246570;27;20047;-70
2021/06/23 00:10:23;;;;;;;41.03;30.02;;;16.30;99.90;;;;;;4246314;27;20396;-69
2021/06/23 00:12:29;;;;;;;33.03;28.77;;;16.10;99.90;;;;;;4246097;27;20067;-70
2021/06/23 00:14:32;;;;;;;37.70;30.35;;;16.20;99.90;;;;;;4246275;27;20051;-71
2021/06/23 00:16:35;;;;;;;40.17;29.13;;;16.30;99.90;;;;;;4246342;27;20051;-71
2021/06/23 00:18:39;;;;;;;45.55;30.85;;;16.20;99.90;;;;;;4246413;27;20055;-71
2021/06/23 00:20:42;;;;;;;39.67;28.77;;;16.10;99.90;;;;;;4246348;27;20085;-71
2021/06/23 00:22:46;;;;;;;34.08;27.38;;;16.10;99.90;;;;;;4245886;27;20055;-73
2021/06/23 00:24:49;;;;;;;42.60;27.55;;;16.20;99.90;;;;;;4246046;27;20055;-73
2021/06/23 00:26:52;;;;;;;42.65;28.02;;;16.10;99.90;;;;;;4245167;27;20435;-73
2021/06/23 00:28:55;;;;;;;36.08;27.80;;;16.10;99.90;;;;;;4245840;27;20055;-73
2021/06/23 00:30:58;;;;;;;40.15;27.38;;;16.10;99.90;;;;;;4246105;27;20461;-73
2021/06/23 00:33:06;;;;;;;40.10;27.02;;;16.10;99.90;;;;;;4245941;27;20055;-71
2021/06/23 00:35:10;;;;;;;35.08;27.73;;;16.20;99.90;;;;;;4245896;27;20519;-71
2021/06/23 00:37:13;;;;;;;46.97;28.33;;;16.30;99.90;;;;;;4245951;28;20128;-70
2021/06/23 00:39:17;;;;;;;34.13;26.48;;;16.30;99.90;;;;;;4245865;28;20055;-70
2021/06/23 00:41:21;;;;;;;39.10;27.45;;;16.30;99.90;;;;;;4246135;28;20399;-70
2021/06/23 00:43:24;;;;;;;39.47;26.70;;;16.30;99.90;;;;;;4248157;28;20297;-74
2021/06/23 00:45:29;;;;;;;30.98;24.92;;;16.40;99.90;;;;;;4251447;28;20573;-74
2021/06/23 00:47:33;;;;;;;35.28;27.35;;;16.30;99.90;;;;;;4251650;28;20111;-73
2021/06/23 00:49:37;;;;;;;39.33;28.05;;;16.20;99.90;;;;;;4250894;28;20464;-73
2021/06/23 00:51:40;;;;;;;36.40;26.60;;;16.20;99.90;;;;;;4248820;28;20070;-71
2021/06/23 00:53:43;;;;;;;35.28;26.50;;;16.20;99.90;;;;;;4245525;28;20055;-73
2021/06/23 00:55:52;;;;;;;42.50;28.63;;;16.20;99.90;;;;;;4245754;28;20055;-73
2021/06/23 00:57:56;;;;;;;34.65;26.17;;;16.30;99.90;;;;;;4245610;28;20063;-71
2021/06/23 00:59:59;;;;;;;37.42;27.27;;;16.30;99.90;;;;;;4245728;28;20048;-71
2021/06/23 01:02:03;;;;;;;38.42;26.98;;;16.40;99.90;;;;;;4245828;28;20059;-71
2021/06/23 01:04:07;;;;;;;38.15;26.27;;;16.30;99.90;;;;;;4245648;28;20051;-70
2021/06/23 01:06:10;;;;;;;37.45;27.08;;;16.30;99.90;;;;;;4245477;28;20183;-70
2021/06/23 01:08:13;;;;;;;38.42;27.17;;;16.20;99.90;;;;;;4245910;28;20035;-70
2021/06/23 01:10:17;;;;;;;34.28;27.10;;;16.20;99.90;;;;;;4245759;28;20050;-71
2021/06/23 01:12:56;;;;;;;35.83;26.27;;;16.20;99.90;;;;;;4245752;28;20059;-70
2021/06/23 01:15:01;;;;;;;39.65;25.83;;;16.40;99.90;;;;;;4245718;28;20054;-71
2021/06/23 01:17:05;;;;;;;42.80;28.65;;;16.20;99.90;;;;;;4245933;28;20496;-71
2021/06/23 01:19:10;;;;;;;39.28;29.05;;;16.10;99.90;;;;;;4245659;28;20112;-71
2021/06/23 01:21:14;;;;;;;42.72;27.35;;;16.30;99.90;;;;;;4245807;28;20052;-70
2021/06/23 01:23:18;;;;;;;39.05;27.52;;;16.20;99.90;;;;;;4245681;28;20051;-70
2021/06/23 01:25:21;;;;;;;40.65;28.45;;;16.30;99.90;;;;;;4245399;28;20058;-70
2021/06/23 01:27:25;;;;;;;45.67;28.23;;;16.20;99.90;;;;;;4245776;28;20131;-70
2021/06/23 01:29:28;;;;;;;42.38;29.63;;;16.20;99.90;;;;;;4245442;28;20051;-70
2021/06/23 01:31:31;;;;;;;43.45;29.42;;;16.20;99.90;;;;;;4246036;28;20055;-69
2021/06/23 01:33:35;;;;;;;46.45;28.30;;;16.20;99.90;;;;;;4246221;28;20051;-71
2021/06/23 01:35:38;;;;;;;39.50;29.48;;;16.20;99.90;;;;;;4246962;28;20489;-70
2021/06/23 01:37:41;;;;;;;44.42;28.00;;;16.10;99.90;;;;;;4247898;27;20051;-71
2021/06/23 01:39:45;;;;;;;44.80;30.77;;;16.10;99.90;;;;;;4249689;27;20054;-70
2021/06/23 01:41:48;;;;;;;46.15;29.88;;;15.90;99.90;;;;;;4250035;27;20131;-72
2021/06/23 01:43:51;;;;;;;41.22;29.10;;;16.10;99.90;;;;;;4250292;27;20055;-72
2021/06/23 01:45:54;;;;;;;40.80;29.10;;;16.20;99.90;;;;;;4254772;27;20412;-71
2021/06/23 01:47:58;;;;;;;48.88;31.00;;;16.20;99.90;;;;;;4260393;27;20072;-71
2021/06/23 01:50:02;;;;;;;40.38;29.02;;;16.10;99.90;;;;;;4257748;27;20115;-71
2021/06/23 01:52:06;;;;;;;41.58;29.95;;;16.20;99.90;;;;;;4255994;27;20054;-72
2021/06/23 01:54:09;;;;;;;49.95;31.30;;;16.10;99.90;;;;;;4252909;27;20116;-71
2021/06/23 01:56:13;;;;;;;43.95;28.95;;;16.20;99.90;;;;;;4251786;27;20146;-71
2021/06/23 01:58:17;;;;;;;47.65;30.60;;;16.10;99.90;;;;;;4251423;27;20108;-72
2021/06/23 02:00:21;;;;;;;41.25;28.80;;;16.20;99.90;;;;;;4251143;27;20055;-72
2021/06/23 02:02:29;;;;;;;42.97;29.85;;;16.20;99.90;;;;;;4251413;27;20213;-72
2021/06/23 02:04:48;;;;;;;43.15;28.30;;;16.20;99.90;;;;;;4252865;27;20073;-71
2021/06/23 02:07:12;;;;;;;47.85;30.10;;;16.30;99.90;;;;;;4252905;27;20051;-71
2021/06/23 02:09:30;;;;;;;42.90;29.10;;;16.20;99.90;;;;;;4248758;27;20380;-73
2021/06/23 02:11:39;;;;;;;43.78;29.70;;;16.10;99.90;;;;;;4248631;27;20051;-73
2021/06/23 02:14:15;;;;;;;43.25;28.60;;;15.90;99.90;;;;;;4254116;27;20059;-72
2021/06/23 02:16:23;;;;;;;44.05;28.73;;;16.00;99.90;;;;;;4255421;27;20054;-72
2021/06/23 02:18:27;;;;;;;40.33;29.85;;;16.00;99.90;;;;;;4256324;27;20051;-75
2021/06/23 02:20:32;;;;;;;45.58;29.15;;;16.00;99.90;;;;;;4254901;27;20054;-75
2021/06/23 02:22:40;;;;;;;42.17;27.98;;;16.20;99.90;;;;;;4249222;27;20055;-74
2021/06/23 02:24:44;;;;;;;43.85;29.63;;;16.20;99.90;;;;;;4249896;27;20052;-70
2021/06/23 02:26:48;;;;;;;40.63;27.92;;;16.20;99.90;;;;;;4248583;27;20055;-71
2021/06/23 02:28:52;;;;;;;39.33;28.58;;;16.20;99.90;;;;;;4248561;27;20477;-71
2021/06/23 02:30:56;;;;;;;43.33;29.05;;;16.20;99.90;;;;;;4248271;27;20054;-71
2021/06/23 02:32:59;;;;;;;41.10;28.45;;;16.10;99.90;;;;;;4248023;27;20191;-71
2021/06/23 02:35:04;;;;;;;41.92;26.73;;;16.20;99.90;;;;;;4248034;27;20051;-71
2021/06/23 02:37:08;;;;;;;43.92;27.08;;;16.10;99.90;;;;;;4247905;27;20055;-71
2021/06/23 02:39:11;;;;;;;44.63;26.77;;;16.10;99.90;;;;;;4247703;27;20054;-71
2021/06/23 02:41:14;;;;;;;37.83;25.65;;;16.20;99.90;;;;;;4247828;27;20051;-71
2021/06/23 02:43:19;;;;;;;41.17;25.10;;;16.20;99.90;;;;;;4247783;27;20051;-71
2021/06/23 02:45:22;;;;;;;;;;;16.20;99.90;;;;;;4248247;27;20070;-71
2021/06/23 02:47:25;;;;;;;38.67;24.80;;;16.10;99.90;;;;;;4247506;27;19919;-71
2021/06/23 02:49:28;;;;;;;35.80;25.52;;;16.10;99.90;;;;;;4246279;27;20139;-70
2021/06/23 02:51:38;;;;;;;39.30;25.08;;;16.10;99.90;;;;;;4247610;27;20108;-71
2021/06/23 02:53:42;;;;;;;33.53;23.90;;;16.00;99.90;;;;;;4247083;27;20055;-71
2021/06/23 02:55:45;;;;;;;38.45;24.90;;;16.00;99.90;;;;;;4247477;27;20511;-71
2021/06/23 02:57:49;;;;;;;34.28;24.10;;;16.00;99.90;;;;;;4247207;27;20051;-71
2021/06/23 02:59:54;;;;;;;34.35;24.30;;;16.00;99.90;;;;;;4247302;27;20051;-72
2021/06/23 03:01:58;;;;;;;31.35;22.42;;;16.10;99.90;;;;;;4247472;27;20062;-71
2021/06/23 03:04:01;;;;;;;28.75;22.45;;;16.30;99.90;;;;;;4247171;27;20111;-71
2021/06/23 03:06:05;;;;;;;33.28;22.95;;;16.40;99.90;;;;;;4247238;27;20514;-70
2021/06/23 03:08:08;;;;;;;33.95;22.30;;;16.40;99.90;;;;;;4247010;27;20568;-73
2021/06/23 03:10:13;;;;;;;28.98;21.17;;;16.30;99.90;;;;;;4247079;27;20103;-73
2021/06/23 03:12:17;;;;;;;28.60;21.50;;;16.30;99.90;;;;;;4248409;27;20048;-72
2021/06/23 03:14:20;;;;;;;28.75;22.65;;;16.50;99.90;;;;;;4247874;27;20052;-73
2021/06/23 03:16:24;;;;;;;30.73;20.20;;;16.60;99.90;;;;;;4251378;27;20425;-71
2021/06/23 03:18:29;;;;;;;30.30;21.02;;;16.70;99.90;;;;;;4251377;27;20051;-70
2021/06/23 03:20:32;;;;;;;36.25;22.55;;;16.70;99.90;;;;;;4251397;27;20488;-71
2021/06/23 03:22:35;;;;;;;30.42;21.70;;;16.60;99.90;;;;;;4248611;27;20614;-71
2021/06/23 03:24:39;;;;;;;32.05;21.95;;;16.50;99.90;;;;;;4247021;27;20055;-73
2021/06/23 03:26:42;;;;;;;23.17;20.02;;;16.60;99.90;;;;;;4247153;27;20051;-74
2021/06/23 03:28:46;;;;;;;28.75;21.17;;;16.70;99.90;;;;;;4246824;27;20059;-71
2021/06/23 03:30:49;;;;;;;29.45;21.63;;;16.80;99.90;;;;;;4247118;27;20059;-71
2021/06/23 03:32:55;;;;;;;33.63;21.95;;;16.70;99.90;;;;;;4246645;27;20062;-72
2021/06/23 03:34:58;;;;;;;31.15;23.40;;;16.60;99.90;;;;;;4246652;27;20055;-71
2021/06/23 03:37:01;;;;;;;31.88;24.83;;;16.50;99.90;;;;;;4246760;27;20051;-74
2021/06/23 03:39:04;;;;;;;32.95;24.92;;;16.30;99.90;;;;;;4246857;27;20047;-70
2021/06/23 03:41:07;;;;;;;33.08;23.40;;;16.10;99.90;;;;;;4246406;27;20112;-73
2021/06/23 03:43:10;;;;;;;33.60;23.77;;;16.20;99.90;;;;;;4246942;27;20058;-71
2021/06/23 03:45:19;;;;;;;39.22;24.98;;;16.10;99.90;;;;;;4246641;27;20059;-70
2021/06/23 03:47:22;;;;;;;32.42;24.77;;;16.00;99.90;;;;;;4247688;27;20051;-73
2021/06/23 03:49:26;;;;;;;37.17;24.75;;;16.10;99.90;;;;;;4240533;27;20519;-72
2021/06/23 03:51:29;;;;;;;39.17;24.50;;;16.00;99.90;;;;;;4248961;27;20130;-71
2021/06/23 03:53:32;;;;;;;35.13;24.90;;;16.00;99.90;;;;;;4246137;27;20115;-71
2021/06/23 03:55:35;;;;;;;36.10;25.10;;;16.00;99.90;;;;;;4246343;27;20487;-72
2021/06/23 03:57:38;;;;;;;32.83;25.30;;;15.90;99.90;;;;;;4246196;27;20131;-72
2021/06/23 03:59:41;;;;;;;35.53;25.80;;;15.90;99.90;;;;;;4246272;27;20055;-71
2021/06/23 04:01:44;;;;;;;33.95;24.65;;;15.90;99.90;;;;;;4246870;27;20054;-72
2021/06/23 04:03:48;;;;;;;35.50;25.50;;;15.90;99.90;;;;;;4246155;27;20059;-72
2021/06/23 04:05:52;;;;;;;30.20;25.38;;;15.70;99.90;;;;;;4246426;27;20063;-71
2021/06/23 04:07:55;;;;;;;42.72;25.63;;;15.80;99.90;;;;;;4246175;27;20122;-72
2021/06/23 04:09:58;;;;;;;35.95;25.08;;;15.80;99.90;;;;;;4246065;27;20055;-71
2021/06/23 04:12:01;;;;;;;35.95;25.98;;;15.80;99.90;;;;;;4246143;27;20609;-71
2021/06/23 04:14:04;;;;;;;36.53;26.38;;;15.80;99.90;;;;;;4245987;27;20051;-70
2021/06/23 04:16:07;;;;;;;35.28;24.50;;;15.90;99.90;;;;;;4245982;27;20051;-71
2021/06/23 04:18:11;;;;;;;34.33;24.60;;;16.00;99.90;;;;;;4245929;27;20059;-71
2021/06/23 04:20:15;;;;;;;37.30;23.38;;;15.90;99.90;;;;;;4245957;27;20104;-71
2021/06/23 04:22:21;;;;;;;31.98;25.38;;;16.00;99.90;;;;;;4246378;27;20055;-72
2021/06/23 04:24:24;;;;;;;40.55;25.15;;;16.00;99.90;;;;;;4246049;27;20496;-73
2021/06/23 04:26:27;;;;;;;34.45;24.38;;;16.10;99.90;;;;;;4245905;27;20054;-73
2021/06/23 04:28:30;;;;;;;32.90;23.58;;;16.00;99.90;;;;;;4246762;27;20068;-73
2021/06/23 04:30:33;;;;;;;34.97;23.50;;;16.10;99.90;;;;;;4233556;28;20055;-71
2021/06/23 04:32:36;;;;;;;32.25;23.60;;;16.20;99.90;;;;;;4252547;27;20055;-71
2021/06/23 04:34:39;;;;;;;33.42;23.08;;;16.20;99.90;;;;;;4251976;27;20055;-71
2021/06/23 04:36:42;;;;;;;33.00;22.65;;;16.20;99.90;;;;;;4250349;27;20051;-73
2021/06/23 04:38:46;;;;;;;32.70;23.27;;;16.30;99.90;;;;;;4247144;27;20050;-71
2021/06/23 04:40:49;;;;;;;31.45;22.40;;;16.10;99.90;;;;;;4246938;28;20055;-71
2021/06/23 04:42:52;;;;;;;32.92;22.50;;;16.10;99.90;;;;;;4248441;28;20054;-72
2021/06/23 04:44:55;;;;;;;32.08;22.05;;;16.00;99.90;;;;;;4248692;28;20048;-73
2021/06/23 04:46:58;;;;;;;33.58;23.05;;;16.00;99.90;;;;;;4248640;28;20120;-70
2021/06/23 04:49:02;;;;;;;33.30;22.58;;;15.80;99.90;;;;;;4246739;28;20043;-73
2021/06/23 04:51:06;;;;;;;38.97;23.60;;;16.00;99.90;;;;;;4248225;28;20066;-71
2021/06/23 04:53:10;;;;;;;29.92;21.48;;;16.10;99.90;;;;;;4248349;28;20143;-71
2021/06/23 04:55:16;;;;;;;35.67;23.13;;;16.20;99.90;;;;;;4249758;28;20490;-71
2021/06/23 04:57:19;;;;;;;33.83;22.77;;;16.10;99.90;;;;;;4247299;28;20475;-70
2021/06/23 04:59:22;;;;;;;33.65;23.02;;;16.10;99.90;;;;;;4248217;28;20055;-70
2021/06/23 05:01:25;;;;;;;33.78;23.92;;;16.10;99.90;;;;;;4248312;28;20410;-70
2021/06/23 05:03:28;;;;;;;33.95;22.55;;;16.20;99.90;;;;;;4247964;28;20059;-73
2021/06/23 05:05:31;;;;;;;30.60;22.40;;;16.20;99.90;;;;;;4246970;28;20058;-73
2021/06/23 05:07:34;;;;;;;34.95;23.55;;;16.30;99.90;;;;;;4247937;28;20066;-72
2021/06/23 05:09:38;;;;;;;32.47;23.42;;;16.20;99.90;;;;;;4247670;28;20052;-73
2021/06/23 05:11:42;;;;;;;39.97;23.20;;;16.30;99.90;;;;;;4248483;27;20084;-72
2021/06/23 05:13:45;;;;;;;38.50;23.17;;;16.20;99.90;;;;;;4251572;27;20085;-70
2021/06/23 05:15:49;;;;;;;37.88;23.17;;;16.30;99.90;;;;;;4252397;27;20059;-70
2021/06/23 05:17:52;;;;;;;34.85;23.92;;;16.20;99.90;;;;;;4252579;27;20277;-70
2021/06/23 05:19:55;;;;;;;29.83;23.33;;;16.00;99.90;;;;;;4252225;27;20100;-73
2021/06/23 05:22:01;;;;;;;36.83;25.00;;;15.90;99.90;;;;;;4250948;27;20502;-73
2021/06/23 05:24:06;;;;;;;27.77;23.80;;;15.80;99.90;;;;;;4251505;27;20488;-73
2021/06/23 05:26:09;;;;;;;32.08;24.45;;;15.70;99.90;;;;;;4231452;28;20059;-73
2021/06/23 05:28:13;;;;;;;39.53;23.30;;;15.80;99.90;;;;;;4249721;27;20112;-71
2021/06/23 05:30:17;;;;;;;22.25;18.95;;;16.00;99.90;;;;;;4249173;27;20062;-70
2021/06/23 05:32:20;;;;;;;36.55;23.90;;;15.90;99.90;;;;;;4250090;27;20055;-73
2021/06/23 05:34:23;;;;;;;37.95;25.05;;;16.00;99.90;;;;;;4249146;27;20047;-72
2021/06/23 05:36:26;;;;;;;29.88;23.52;;;16.10;99.90;;;;;;4249715;27;20063;-70
2021/06/23 05:38:29;;;;;;;30.40;23.52;;;16.00;99.90;;;;;;4250467;27;20058;-73
2021/06/23 05:40:32;;;;;;;33.75;22.63;;;15.90;99.90;;;;;;4250993;27;20448;-71
2021/06/23 05:42:35;;;;;;;32.17;22.70;;;16.10;99.90;;;;;;4250008;27;20051;-71
2021/06/23 05:44:40;;;;;;;35.90;24.15;;;16.20;99.90;;;;;;4253990;27;20487;-71
2021/06/23 05:46:43;;;;;;;29.95;24.35;;;16.00;99.90;;;;;;4233789;27;20062;-74
2021/06/23 05:48:46;;;;;;;34.75;22.05;;;15.90;99.90;;;;;;4248571;27;20055;-74
2021/06/23 05:50:49;;;;;;;30.23;22.60;;;15.90;99.90;;;;;;4248817;27;20051;-72
2021/06/23 05:52:52;;;;;;;30.25;23.48;;;15.90;99.90;;;;;;4248607;27;20460;-71
2021/06/23 05:54:56;;;;;;;36.15;23.05;;;15.90;99.90;;;;;;4248906;27;20051;-71
2021/06/23 05:56:59;;;;;;;32.40;23.77;;;16.00;99.90;;;;;;4248820;27;20061;-71
2021/06/23 05:59:02;;;;;;;34.13;23.08;;;16.10;99.90;;;;;;4249488;27;20048;-71
2021/06/23 06:01:06;;;;;;;32.13;23.85;;;16.00;99.90;;;;;;4248896;27;20419;-71
2021/06/23 06:03:09;;;;;;;31.83;23.65;;;16.20;99.90;;;;;;4248342;27;20112;-71
2021/06/23 06:05:13;;;;;;;36.75;23.67;;;16.20;99.90;;;;;;4249081;27;20103;-72
2021/06/23 06:07:16;;;;;;;36.83;23.98;;;16.10;99.90;;;;;;4248905;27;20468;-70
2021/06/23 06:09:19;;;;;;;36.22;22.13;;;16.00;99.90;;;;;;4230983;27;20059;-70
2021/06/23 06:11:22;;;;;;;42.05;25.30;;;16.10;99.90;;;;;;4251582;27;20138;-70
2021/06/23 06:13:26;;;;;;;38.72;25.17;;;16.10;99.90;;;;;;4249694;27;20055;-71
2021/06/23 06:15:29;;;;;;;41.45;28.05;;;16.20;99.90;;;;;;4251735;27;20055;-70
2021/06/23 06:17:33;;;;;;;32.83;24.77;;;16.00;99.90;;;;;;4249469;27;20051;-72
2021/06/23 06:19:37;;;;;;;46.30;27.52;;;16.10;99.90;;;;;;4252278;27;20058;-71
2021/06/23 06:21:40;;;;;;;45.20;26.48;;;16.00;99.90;;;;;;4251867;27;20537;-71
2021/06/23 06:23:43;;;;;;;38.03;26.45;;;15.90;99.90;;;;;;4250453;27;20584;-71
2021/06/23 06:25:46;;;;;;;39.78;27.50;;;15.90;99.90;;;;;;4250063;27;20063;-71
2021/06/23 06:27:49;;;;;;;39.63;26.90;;;15.90;99.90;;;;;;4249570;27;20431;-71
2021/06/23 06:29:52;;;;;;;41.72;25.95;;;16.00;99.90;;;;;;4255762;27;20408;-75
2021/06/23 06:31:55;;;;;;;46.40;25.90;;;16.10;99.90;;;;;;4251159;27;20058;-71
2021/06/23 06:34:00;;;;;;;39.30;27.33;;;16.00;99.90;;;;;;4249228;27;20058;-71
2021/06/23 06:36:03;;;;;;;38.50;27.20;;;16.10;99.90;;;;;;4249314;27;20043;-74
2021/06/23 06:38:06;;;;;;;40.83;27.13;;;16.00;99.90;;;;;;4249136;27;20073;-73
2021/06/23 06:40:10;;;;;;;41.88;26.88;;;15.80;99.90;;;;;;4249368;27;20055;-71
2021/06/23 06:42:13;;;;;;;38.90;26.85;;;15.70;99.90;;;;;;4252063;27;20055;-71
2021/06/23 06:44:17;;;;;;;40.65;25.73;;;15.90;99.90;;;;;;4254345;27;20051;-72
2021/06/23 06:46:20;;;;;;;43.28;25.63;;;16.00;99.90;;;;;;4255114;27;20082;-72
2021/06/23 06:48:24;;;;;;;36.10;24.33;;;15.90;99.90;;;;;;4244904;27;20051;-73
2021/06/23 06:50:28;;;;;;;34.50;23.97;;;15.80;99.90;;;;;;4252865;27;20081;-74
2021/06/23 06:52:32;;;;;;;37.95;22.95;;;15.90;99.90;;;;;;4253868;27;20047;-74
2021/06/23 06:54:35;;;;;;;34.33;23.42;;;16.00;99.90;;;;;;4257446;27;20055;-73
2021/06/23 06:56:38;;;;;;;32.45;22.40;;;16.10;99.90;;;;;;4256020;27;20051;-72
2021/06/23 06:58:41;;;;;;;37.65;22.67;;;16.00;99.90;;;;;;4256828;27;20053;-72
2021/06/23 07:00:44;;;;;;;36.08;23.13;;;16.10;99.90;;;;;;4254577;27;20051;-72
2021/06/23 07:02:47;;;;;;;39.83;22.58;;;16.10;99.90;;;;;;4253536;27;20055;-72
2021/06/23 07:04:50;;;;;;;29.52;22.50;;;16.10;99.90;;;;;;4249334;27;20059;-73
2021/06/23 07:06:55;;;;;;;36.83;21.23;;;16.10;99.90;;;;;;4248650;27;20056;-71
2021/06/23 07:08:58;;;;;;;40.75;23.33;;;16.20;99.90;;;;;;4248551;27;20047;-73
2021/06/23 07:11:01;;;;;;;36.88;22.00;;;16.30;99.90;;;;;;4249949;27;20051;-72
2021/06/23 07:13:04;;;;;;;34.05;21.17;;;16.20;99.90;;;;;;4249343;27;20504;-73
2021/06/23 07:15:08;;;;;;;32.67;21.10;;;16.10;99.90;;;;;;4251373;27;20415;-71
2021/06/23 07:17:11;;;;;;;34.95;20.63;;;16.00;99.90;;;;;;4251368;27;20051;-72
2021/06/23 07:19:15;;;;;;;31.25;20.85;;;16.00;99.90;;;;;;4247174;27;20058;-74
2021/06/23 07:21:18;;;;;;;38.72;20.52;;;16.30;99.90;;;;;;4248462;27;20055;-73
2021/06/23 07:23:22;;;;;;;30.75;19.67;;;16.30;99.90;;;;;;4248822;27;20107;-73
2021/06/23 07:25:25;;;;;;;33.80;19.52;;;16.10;99.90;;;;;;4250660;27;20062;-72
2021/06/23 07:27:29;;;;;;;26.95;19.02;;;16.00;99.90;;;;;;4249730;27;20055;-73
2021/06/23 07:29:32;;;;;;;33.60;19.63;;;15.90;99.90;;;;;;4233203;28;20483;-70
2021/06/23 07:33:42;;;;;;;28.92;18.85;;;15.70;99.90;;;;;;4251408;27;20055;-73
2021/06/23 07:38:14;;;;;;;32.95;18.60;;;15.90;99.90;;;;;;4250491;27;20058;-72
2021/06/23 07:40:20;;;;;;;25.63;18.13;;;16.00;99.90;;;;;;4250828;27;20093;-71
2021/06/23 07:42:24;;;;;;;29.77;18.55;;;16.10;99.90;;;;;;4250916;27;20059;-73
2021/06/23 07:44:39;;;;;;;35.25;20.38;;;16.00;99.90;;;;;;4250397;27;20084;-71
2021/06/23 07:46:49;;;;;;;30.00;19.35;;;15.90;99.90;;;;;;4247273;27;20124;-72
2021/06/23 07:48:54;;;;;;;36.42;19.90;;;16.10;99.90;;;;;;4233135;28;20052;-71
2021/06/23 07:51:12;;;;;;;;;;;16.10;99.90;;;;;;4250416;27;20058;-72
2021/06/23 08:09:41;;;;;;;27.63;18.30;;;16.00;99.90;;;;;;4251268;27;20107;-71
2021/06/23 08:11:51;;;;;;;40.60;18.40;;;16.10;99.90;;;;;;4253696;27;20580;-71
2021/06/23 08:13:54;;;;;;;32.47;17.77;;;16.10;99.90;;;;;;4254557;27;20051;-73
2021/06/23 08:15:57;;;;;;;36.03;17.73;;;16.10;99.90;;;;;;4255110;27;20051;-74
2021/06/23 08:18:01;;;;;;;32.55;16.98;;;16.10;99.90;;;;;;4252340;27;20065;-71
2021/06/23 08:20:05;;;;;;;24.13;17.45;;;16.10;99.90;;;;;;4250248;27;20096;-72
2021/06/23 08:22:11;;;;;;;24.30;17.52;;;16.00;99.90;;;;;;4248898;27;20088;-71
2021/06/23 08:24:14;;;;;;;21.20;15.63;;;16.00;99.90;;;;;;4246926;27;20047;-73
2021/06/23 08:26:17;;;;;;;25.13;16.77;;;16.30;99.90;;;;;;4248758;27;20495;-73
2021/06/23 08:28:23;;;;;;;22.90;16.17;;;16.30;99.90;;;;;;4231341;28;20056;-72
2021/06/23 08:30:26;;;;;;;26.25;16.02;;;16.30;99.90;;;;;;4248031;27;20121;-74
2021/06/23 08:32:29;;;;;;;23.05;15.23;;;16.20;99.90;;;;;;4247974;27;20535;-72
2021/06/23 08:34:34;;;;;;;20.17;15.02;;;16.10;99.90;;;;;;4245805;27;20075;-72
2021/06/23 08:36:37;;;;;;;20.95;15.05;;;16.10;99.90;;;;;;4248971;27;20047;-72
2021/06/23 08:38:41;;;;;;;29.85;16.38;;;16.20;99.90;;;;;;4249838;27;20084;-70
2021/06/23 08:40:45;;;;;;;27.10;15.32;;;16.20;99.90;;;;;;4248863;28;20062;-71
2021/06/23 08:42:48;;;;;;;31.13;15.38;;;16.30;99.90;;;;;;4249234;28;20419;-73
2021/06/23 08:44:53;;;;;;;24.30;15.32;;;16.40;99.90;;;;;;4245587;27;20047;-71
2021/06/23 08:46:59;;;;;;;24.13;14.88;;;16.30;99.90;;;;;;4249795;27;20047;-70
2021/06/23 08:49:02;;;;;;;24.92;15.43;;;16.30;99.90;;;;;;4251811;27;20407;-72
2021/06/23 08:51:07;;;;;;;21.65;14.15;;;16.40;99.90;;;;;;4246270;27;20051;-70
2021/06/23 08:53:10;;;;;;;23.60;13.68;;;16.40;99.90;;;;;;4249399;27;20080;-70
2021/06/23 08:55:19;;;;;;;25.73;13.18;;;16.50;99.90;;;;;;4253401;27;20051;-70
2021/06/23 08:57:23;;;;;;;23.38;14.88;;;16.80;99.90;;;;;;4254020;27;20051;-72
2021/06/23 08:59:26;;;;;;;23.60;11.40;;;16.70;99.90;;;;;;4255866;27;20293;-75
2021/06/23 09:01:32;;;;;;;24.77;14.90;;;16.40;99.90;;;;;;4257520;27;20057;-70
2021/06/23 09:04:00;;;;;;;19.80;13.48;;;16.50;99.90;;;;;;4256967;27;20047;-71
2021/06/23 09:06:04;;;;;;;25.15;13.85;;;16.60;99.90;;;;;;4251624;27;20410;-70
2021/06/23 09:08:07;;;;;;;20.92;14.02;;;16.60;99.90;;;;;;4253359;27;20064;-70
2021/06/23 09:10:32;;;;;;;23.65;13.98;;;16.60;99.90;;;;;;4253736;27;20051;-74
2021/06/23 09:12:35;;;;;;;20.77;12.82;;;16.80;99.90;;;;;;4239659;27;20411;-70
2021/06/23 09:14:39;;;;;;;31.35;14.05;;;17.00;99.90;;;;;;4251382;27;20110;-70
2021/06/23 09:17:05;;;;;;;17.92;13.55;;;16.90;99.90;;;;;;4250815;27;20530;-71
2021/06/23 09:19:28;;;;;;;22.55;12.98;;;16.80;99.90;;;;;;4234069;27;20058;-71
2021/06/23 09:21:31;;;;;;;20.17;13.75;;;17.00;99.90;;;;;;4243124;27;20535;-71
2021/06/23 09:23:46;;;;;;;18.40;14.88;;;16.90;99.90;;;;;;4253231;27;20498;-71
2021/06/23 09:25:49;;;;;;;21.98;14.10;;;16.80;99.90;;;;;;4251440;27;20095;-69
2021/06/23 09:27:55;;;;;;;23.20;14.63;;;16.90;99.90;;;;;;4243477;27;20119;-68
2021/06/23 09:30:24;;;;;;;19.42;14.43;;;16.80;99.90;;;;;;4250861;27;20179;-69
2021/06/23 09:32:29;;;;;;;30.92;15.88;;;16.70;99.90;;;;;;4252996;27;20100;-72
2021/06/23 09:34:34;;;;;;;22.23;15.43;;;16.80;99.90;;;;;;4235010;27;20047;-72
2021/06/23 09:36:37;;;;;;;22.17;15.55;;;16.90;99.90;;;;;;4250123;27;20086;-71
2021/06/23 09:38:44;;;;;;;23.60;16.80;;;16.70;99.90;;;;;;4250288;27;20059;-74
2021/06/23 09:40:47;;;;;;;25.30;15.73;;;16.70;99.90;;;;;;4248667;27;20101;-72
2021/06/23 09:42:56;;;;;;;25.38;15.55;;;16.80;99.90;;;;;;4248421;27;20044;-71
2021/06/23 09:45:05;;;;;;;28.40;16.05;;;16.80;99.90;;;;;;4235814;27;20419;-71
2021/06/23 09:47:08;;;;;;;22.42;14.18;;;17.00;99.90;;;;;;4244068;27;20074;-71
2021/06/23 09:49:15;;;;;;;21.17;13.80;;;17.00;99.90;;;;;;4248114;27;20088;-71
2021/06/23 09:51:20;;;;;;;18.90;13.68;;;16.90;99.90;;;;;;4247756;27;20163;-72
2021/06/23 09:53:23;;;;;;;;;;;17.00;99.90;;;;;;4248006;27;20111;-72
2021/06/23 09:55:36;;;;;;;21.42;14.23;;;16.90;99.90;;;;;;4247885;27;19950;-71
2021/06/23 09:57:40;;;;;;;19.13;14.63;;;17.10;99.90;;;;;;4247541;27;20039;-69
2021/06/23 09:59:54;;;;;;;31.10;15.00;;;17.10;99.90;;;;;;4248027;27;20051;-69
2021/06/23 10:01:58;;;;;;;33.50;15.77;;;17.10;99.90;;;;;;4248079;27;20051;-70
2021/06/23 10:04:05;;;;;;;24.67;13.15;;;17.30;99.90;;;;;;4248067;27;20116;-68
2021/06/23 10:06:21;;;;;;;21.75;14.23;;;17.60;99.90;;;;;;4248178;27;20067;-69
2021/06/23 10:08:27;;;;;;;25.35;14.65;;;17.50;99.90;;;;;;4247704;27;20511;-72
2021/06/23 10:10:42;;;;;;;18.33;13.93;;;17.50;99.90;;;;;;4251553;27;20047;-72
2021/06/23 10:12:47;;;;;;;22.25;14.55;;;17.40;99.90;;;;;;4250323;27;20048;-72
2021/06/23 10:14:51;;;;;;;20.75;14.63;;;17.40;99.90;;;;;;4242738;27;20055;-73
2021/06/23 10:16:55;;;;;;;28.40;14.32;;;17.50;99.90;;;;;;4246785;27;20047;-72
2021/06/23 10:18:59;;;;;;;33.03;13.27;;;17.70;99.90;;;;;;4247483;27;20084;-72
2021/06/23 10:21:07;;;;;;;22.40;13.43;;;17.80;99.90;;;;;;4241997;27;20079;-73
2021/06/23 10:23:18;;;;;;;18.23;14.05;;;17.70;99.90;;;;;;4193570;28;21305;-72
2021/06/23 10:25:30;;;;;;;15.68;13.07;;;17.80;99.90;;;;;;4243999;27;20138;-69
2021/06/23 10:27:42;;;;;;;21.30;13.73;;;17.90;99.90;;;;;;4224576;27;20330;-73
2021/06/23 10:29:52;;;;;;;21.58;12.43;;;18.00;99.90;;;;;;4243537;27;20027;-72
2021/06/23 10:31:57;;;;;;;19.85;12.05;;;18.20;99.90;;;;;;4243757;27;20062;-75
2021/06/23 10:34:02;;;;;;;19.75;12.15;;;18.10;99.90;;;;;;4243748;27;20059;-74
2021/06/23 10:36:07;;;;;;;19.67;13.10;;;18.00;99.90;;;;;;4244298;27;20062;-74
2021/06/23 10:38:15;;;;;;;19.75;11.98;;;18.00;99.90;;;;;;4244551;27;20051;-74
2021/06/23 10:40:20;;;;;;;18.38;12.07;;;18.10;99.90;;;;;;4247336;27;20066;-71
2021/06/23 10:42:26;;;;;;;14.75;12.15;;;18.30;99.90;;;;;;4229306;27;20040;-70
2021/06/23 10:44:34;;;;;;;18.90;12.10;;;17.80;99.90;;;;;;4245434;27;20204;-71
2021/06/23 10:46:39;;;;;;;15.98;11.27;;;17.70;99.90;;;;;;4244042;27;20086;-71
2021/06/23 10:48:57;;;;;;;14.63;11.65;;;17.70;99.90;;;;;;4242633;27;20059;-73
2021/06/23 10:51:23;;;;;;;14.23;10.73;;;17.80;99.90;;;;;;4243680;27;20184;-72
2021/06/23 10:53:34;;;;;;;14.95;11.07;;;17.90;99.90;;;;;;4243315;27;20052;-72
2021/06/23 10:55:49;;;;;;;17.05;10.38;;;18.00;99.90;;;;;;4246167;27;20077;-72